Time;durP1;ratioP1;P1;durP2;ratioP2;P2;SDS_P1;SDS_P2;PMS_P1;PMS_P2;Temp;Humidity;BMP_temperature;BMP_pressure;BME280_temperature;BME280_humidity;BME280_pressure;Samples;Min_cycle;Max_cycle;Signal;HPM_P1;HPM_P2
2022/07/16 00:02:59;;;;;;;6.72;2.58;;;16.70;99.90;;;;;;6276726;22;20015;-89
2022/07/16 00:05:25;;;;;;;7.72;2.40;;;16.40;99.90;;;;;;6250374;22;20027;-88
2022/07/16 00:07:50;;;;;;;8.57;2.60;;;16.40;99.90;;;;;;6251042;22;20091;-88
2022/07/16 00:10:16;;;;;;;7.40;2.80;;;16.70;99.90;;;;;;6258009;22;20025;-88
2022/07/16 00:12:42;;;;;;;8.18;2.63;;;16.40;99.90;;;;;;6297732;22;20019;-88
2022/07/16 00:15:08;;;;;;;7.50;2.65;;;16.40;99.90;;;;;;6257295;22;20020;-88
2022/07/16 00:17:33;;;;;;;8.35;2.63;;;16.30;99.90;;;;;;6250528;22;20336;-88
2022/07/16 00:19:59;;;;;;;8.02;2.40;;;16.40;99.90;;;;;;6249780;22;20027;-88
2022/07/16 00:22:24;;;;;;;8.02;2.50;;;16.40;99.90;;;;;;6248924;22;20123;-88
2022/07/16 00:24:50;;;;;;;6.78;2.50;;;16.30;99.90;;;;;;6277440;22;20038;-89
2022/07/16 00:27:16;;;;;;;7.82;2.65;;;16.20;99.90;;;;;;6250856;22;20019;-88
2022/07/16 00:29:41;;;;;;;8.55;2.60;;;16.20;99.90;;;;;;6251140;22;20015;-88
2022/07/16 00:32:07;;;;;;;7.22;2.50;;;16.20;99.90;;;;;;6254222;22;20019;-88
2022/07/16 00:34:33;;;;;;;7.93;2.70;;;16.20;99.90;;;;;;6251151;22;20015;-88
2022/07/16 00:36:59;;;;;;;8.75;2.50;;;16.20;99.90;;;;;;6253348;22;20046;-88
2022/07/16 00:39:24;;;;;;;6.78;2.03;;;16.60;99.90;;;;;;6284493;22;20015;-88
2022/07/16 00:41:50;;;;;;;7.40;2.40;;;16.10;99.90;;;;;;6250319;22;20020;-88
2022/07/16 00:44:18;;;;;;;7.93;2.40;;;16.10;99.90;;;;;;6249551;22;20019;-88
2022/07/16 00:46:45;;;;;;;7.97;2.88;;;16.50;99.90;;;;;;6277239;22;20012;-88
2022/07/16 00:49:12;;;;;;;7.70;2.65;;;16.10;99.90;;;;;;6277379;22;20300;-89
2022/07/16 00:51:45;;;;;;;6.38;2.35;;;16.10;99.90;;;;;;6276701;22;20022;-88
2022/07/16 00:54:12;;;;;;;8.52;2.40;;;16.10;99.90;;;;;;6277397;22;20065;-88
2022/07/16 00:56:38;;;;;;;8.55;2.50;;;16.70;99.90;;;;;;6277934;22;20072;-89
2022/07/16 00:59:03;;;;;;;7.57;2.60;;;16.10;99.90;;;;;;6233527;22;20465;-88
2022/07/16 01:01:54;;;;;;;7.60;2.55;;;16.50;99.90;;;;;;6249451;22;20034;-87
2022/07/16 01:04:35;;;;;;;6.80;2.40;;;16.10;99.90;;;;;;6276420;22;20378;-88
2022/07/16 01:07:05;;;;;;;7.50;2.70;;;16.30;99.90;;;;;;6276672;22;20443;-88
2022/07/16 01:13:18;;;;;;;6.78;2.53;;;16.10;99.90;;;;;;6275445;22;20037;-88
2022/07/16 01:15:43;;;;;;;8.10;2.70;;;16.90;99.90;;;;;;6249167;22;20030;-88
2022/07/16 01:18:09;;;;;;;10.13;2.40;;;16.60;99.90;;;;;;6249930;22;20012;-87
2022/07/16 01:20:53;;;;;;;8.60;2.80;;;16.40;99.90;;;;;;6248976;22;20431;-88
2022/07/16 01:23:34;;;;;;;8.98;2.83;;;16.70;99.90;;;;;;6276975;22;20089;-88
2022/07/16 01:26:15;;;;;;;7.57;2.58;;;16.00;99.90;;;;;;6275683;22;20190;-88
2022/07/16 01:28:56;;;;;;;9.43;3.10;;;16.50;99.90;;;;;;6248847;22;20469;-87
2022/07/16 01:31:21;;;;;;;8.95;3.00;;;16.00;99.90;;;;;;6249891;22;20064;-88
2022/07/16 01:36:31;;;;;;;7.82;2.88;;;16.50;99.90;;;;;;6239502;22;20045;-89
2022/07/16 01:39:42;;;;;;;8.93;3.20;;;16.30;99.90;;;;;;6246145;23;20087;-88
2022/07/16 01:42:36;;;;;;;8.88;2.85;;;15.80;99.90;;;;;;6249099;22;20094;-87
2022/07/16 01:45:05;;;;;;;8.88;2.65;;;15.90;99.90;;;;;;6300911;22;20014;-87
2022/07/16 01:47:31;;;;;;;8.10;2.92;;;15.90;99.90;;;;;;6252299;22;20020;-88
2022/07/16 01:50:16;;;;;;;8.15;2.92;;;16.00;99.90;;;;;;6251121;22;20018;-88
2022/07/16 01:52:42;;;;;;;9.30;3.00;;;16.00;99.90;;;;;;6248996;22;20008;-88
2022/07/16 01:55:26;;;;;;;10.10;3.00;;;16.10;99.90;;;;;;6275848;22;20051;-87
2022/07/16 01:57:52;;;;;;;9.75;3.15;;;15.90;99.90;;;;;;6249265;22;20498;-87
2022/07/16 02:00:34;;;;;;;8.18;3.13;;;16.30;99.90;;;;;;6248622;22;20051;-86
2022/07/16 02:03:00;;;;;;;9.20;3.50;;;15.10;99.90;;;;;;6246310;22;20022;-87
2022/07/16 02:05:26;;;;;;;8.80;3.30;;;15.60;99.90;;;;;;6248269;22;20098;-87
2022/07/16 02:08:09;;;;;;;8.40;3.30;;;16.00;99.90;;;;;;6247270;22;20046;-87
2022/07/16 02:10:35;;;;;;;8.23;3.40;;;16.50;99.90;;;;;;6276182;22;20027;-87
2022/07/16 02:13:02;;;;;;;8.57;3.42;;;15.60;99.90;;;;;;6250770;22;20020;-87
2022/07/16 02:15:31;;;;;;;8.95;3.40;;;15.50;99.90;;;;;;6278071;22;20070;-87
2022/07/16 02:18:00;;;;;;;8.82;3.53;;;15.50;99.90;;;;;;6278045;22;20420;-87
2022/07/16 02:20:26;;;;;;;8.15;3.35;;;15.80;99.90;;;;;;6251403;22;20058;-87
2022/07/16 02:23:00;;;;;;;8.88;3.60;;;15.40;99.90;;;;;;6279307;22;20081;-87
2022/07/16 02:25:26;;;;;;;9.60;3.65;;;16.30;99.90;;;;;;6280820;22;20003;-87
2022/07/16 02:31:09;;;;;;;9.32;4.05;;;15.50;99.90;;;;;;6281031;22;20046;-87
2022/07/16 02:33:35;;;;;;;8.75;3.70;;;15.90;99.90;;;;;;6250881;22;20023;-87
2022/07/16 02:36:16;;;;;;;9.77;3.83;;;15.80;99.90;;;;;;6249382;22;20312;-87
2022/07/16 02:38:41;;;;;;;8.98;3.72;;;15.50;99.90;;;;;;6251071;22;20070;-87
2022/07/16 02:41:22;;;;;;;9.82;3.97;;;15.50;99.90;;;;;;6250264;22;20011;-87
2022/07/16 02:43:48;;;;;;;11.50;3.95;;;16.10;99.90;;;;;;6249414;22;20074;-87
2022/07/16 02:46:14;;;;;;;10.63;3.95;;;15.90;99.90;;;;;;6277512;22;20447;-87
2022/07/16 02:48:39;;;;;;;9.90;3.70;;;15.20;99.90;;;;;;6252278;22;20011;-87
2022/07/16 02:51:20;;;;;;;11.65;3.58;;;15.60;99.90;;;;;;6277529;22;20099;-87
2022/07/16 02:53:46;;;;;;;9.75;3.60;;;15.10;99.90;;;;;;6250556;22;20094;-87
2022/07/16 02:56:12;;;;;;;9.48;3.78;;;15.80;99.90;;;;;;6250532;22;20089;-87
2022/07/16 02:58:37;;;;;;;9.45;3.45;;;15.70;99.90;;;;;;6276616;22;20020;-87
2022/07/16 03:01:08;;;;;;;8.75;3.28;;;15.60;99.90;;;;;;6250273;22;20095;-87
2022/07/16 03:03:46;;;;;;;8.82;3.40;;;15.80;99.90;;;;;;6259393;22;20012;-87
2022/07/16 03:06:12;;;;;;;7.70;3.00;;;15.90;99.90;;;;;;6244583;23;20051;-87
2022/07/16 03:08:37;;;;;;;8.30;2.90;;;15.10;99.90;;;;;;6219376;23;20455;-87
2022/07/16 03:11:03;;;;;;;9.70;3.42;;;16.00;99.90;;;;;;6218571;23;20095;-87
2022/07/16 03:13:44;;;;;;;8.95;3.08;;;15.80;99.90;;;;;;6219739;23;20024;-87
2022/07/16 03:16:27;;;;;;;7.55;2.97;;;15.90;99.90;;;;;;6220379;23;20020;-87
2022/07/16 03:19:02;;;;;;;8.30;3.15;;;15.40;99.90;;;;;;6242536;23;20027;-86
2022/07/16 03:21:28;;;;;;;9.05;3.42;;;15.50;99.90;;;;;;6248816;23;20027;-87
2022/07/16 03:23:54;;;;;;;8.52;2.90;;;15.00;99.90;;;;;;6219004;23;20016;-87
2022/07/16 03:26:36;;;;;;;8.73;3.35;;;15.50;99.90;;;;;;6219138;23;20020;-87
2022/07/16 03:29:02;;;;;;;7.93;3.35;;;14.70;99.90;;;;;;6219428;23;20027;-87
2022/07/16 03:31:27;;;;;;;8.82;3.08;;;14.70;99.90;;;;;;6246595;23;20047;-87
2022/07/16 03:33:53;;;;;;;8.38;3.17;;;14.70;99.90;;;;;;6218837;23;20020;-87
2022/07/16 03:36:27;;;;;;;8.80;3.13;;;14.60;99.90;;;;;;6246969;23;20016;-87
2022/07/16 03:39:05;;;;;;;10.68;3.58;;;14.60;99.90;;;;;;6219786;23;20016;-87
2022/07/16 03:41:48;;;;;;;9.00;3.35;;;14.50;99.90;;;;;;6246608;23;20515;-87
2022/07/16 03:44:14;;;;;;;9.07;3.60;;;14.80;99.90;;;;;;6219918;23;20459;-87
2022/07/16 03:46:40;;;;;;;9.95;3.85;;;14.80;99.90;;;;;;6245853;23;20270;-87
2022/07/16 03:49:18;;;;;;;10.30;3.35;;;14.60;99.90;;;;;;6219236;23;20020;-87
2022/07/16 03:51:47;;;;;;;10.30;3.60;;;14.80;99.90;;;;;;6244516;23;20020;-87
2022/07/16 03:54:12;;;;;;;10.80;3.30;;;14.50;99.90;;;;;;6246195;23;20034;-87
2022/07/16 03:56:56;;;;;;;10.48;3.10;;;14.50;99.90;;;;;;6219643;23;20472;-87
2022/07/16 03:59:25;;;;;;;8.27;3.30;;;14.30;99.90;;;;;;6219635;23;20020;-87
2022/07/16 04:02:40;;;;;;;9.45;3.47;;;14.70;99.90;;;;;;6244641;23;20066;-87
2022/07/16 04:05:14;;;;;;;8.57;2.95;;;14.20;99.90;;;;;;6246207;23;20635;-87
2022/07/16 04:07:41;;;;;;;12.20;3.53;;;15.40;99.90;;;;;;6219255;23;20078;-87
2022/07/16 04:10:16;;;;;;;9.45;3.35;;;14.50;99.90;;;;;;6219115;23;20080;-87
2022/07/16 04:12:41;;;;;;;8.30;3.10;;;14.50;99.90;;;;;;6246503;23;20039;-87
2022/07/16 04:15:07;;;;;;;12.00;3.33;;;14.60;99.90;;;;;;6218254;23;20024;-87
2022/07/16 04:17:51;;;;;;;7.82;3.08;;;14.40;99.90;;;;;;6219517;23;20008;-87
2022/07/16 04:20:17;;;;;;;;;;;14.40;99.90;;;;;;6220186;23;20347;-87
2022/07/16 04:22:42;;;;;;;13.13;3.65;;;14.80;99.90;;;;;;6218091;23;19954;-87
2022/07/16 04:25:14;;;;;;;10.02;3.70;;;15.40;99.90;;;;;;6219340;23;20094;-87
2022/07/16 04:27:41;;;;;;;10.60;3.30;;;14.80;99.90;;;;;;6219380;23;20526;-87
2022/07/16 04:30:08;;;;;;;7.97;2.90;;;15.10;99.90;;;;;;6217808;23;20016;-87
2022/07/16 04:32:45;;;;;;;10.32;3.08;;;14.40;99.90;;;;;;6218386;23;20078;-87
2022/07/16 04:35:13;;;;;;;9.05;3.08;;;15.50;99.90;;;;;;6218616;23;20380;-87
2022/07/16 04:37:42;;;;;;;8.20;3.05;;;14.50;99.90;;;;;;6245456;23;20012;-87
2022/07/16 04:40:17;;;;;;;12.90;2.83;;;14.80;99.90;;;;;;6245923;23;20020;-87
2022/07/16 04:42:44;;;;;;;8.90;2.70;;;15.10;99.90;;;;;;6190226;23;20018;-88
2022/07/16 04:45:28;;;;;;;8.95;2.72;;;14.50;99.90;;;;;;6129513;23;20450;-87
2022/07/16 04:48:09;;;;;;;;;;;14.50;99.90;;;;;;6130142;23;20009;-87
2022/07/16 04:50:35;;;;;;;7.50;2.35;;;14.60;99.90;;;;;;6140020;23;19925;-90
2022/07/16 04:53:10;;;;;;;9.02;2.53;;;14.60;99.90;;;;;;6171137;23;20020;-87
2022/07/16 04:55:36;;;;;;;9.52;2.25;;;14.60;99.90;;;;;;6128950;23;20473;-87
2022/07/16 04:58:02;;;;;;;8.35;2.30;;;14.70;99.90;;;;;;6165310;23;20041;-87
2022/07/16 05:00:27;;;;;;;6.25;2.20;;;15.10;99.90;;;;;;6159206;23;20017;-87
2022/07/16 05:02:56;;;;;;;8.32;2.38;;;14.40;99.90;;;;;;6159345;23;20455;-87
2022/07/16 05:05:36;;;;;;;6.90;2.20;;;15.10;99.90;;;;;;6184295;23;20024;-86
2022/07/16 05:08:04;;;;;;;8.93;2.40;;;14.60;99.90;;;;;;6158961;23;20519;-88
2022/07/16 05:10:38;;;;;;;8.35;2.40;;;14.70;99.90;;;;;;6184472;23;20366;-88
2022/07/16 05:13:05;;;;;;;12.23;2.53;;;14.70;99.90;;;;;;6159148;23;20087;-87
2022/07/16 05:15:31;;;;;;;7.30;2.40;;;14.70;99.90;;;;;;6159305;23;20349;-87
2022/07/16 05:17:57;;;;;;;8.52;2.60;;;14.70;99.90;;;;;;6184549;23;20010;-87
2022/07/16 05:20:34;;;;;;;7.13;2.10;;;14.10;99.90;;;;;;6159243;23;20109;-87
2022/07/16 05:23:00;;;;;;;9.23;2.55;;;14.80;99.90;;;;;;6197947;23;20021;-87
2022/07/16 05:25:26;;;;;;;8.98;2.38;;;15.60;99.90;;;;;;6183379;23;20001;-87
2022/07/16 05:28:07;;;;;;;8.73;2.17;;;14.80;99.90;;;;;;6185001;23;20005;-86
2022/07/16 05:30:41;;;;;;;6.53;2.13;;;14.60;99.90;;;;;;6192617;23;20063;-87
2022/07/16 05:33:07;;;;;;;7.78;1.90;;;14.90;99.90;;;;;;6162430;23;20092;-88
2022/07/16 05:36:25;;;;;;;7.10;1.90;;;14.90;99.90;;;;;;6160152;23;20421;-87
2022/07/16 05:38:50;;;;;;;6.97;2.25;;;14.80;99.90;;;;;;6187596;23;20017;-88
2022/07/16 05:41:16;;;;;;;8.07;2.10;;;15.60;99.90;;;;;;6187267;23;20013;-88
2022/07/16 05:43:42;;;;;;;7.72;2.10;;;15.50;99.90;;;;;;6160767;23;20079;-87
2022/07/16 05:46:08;;;;;;;8.85;2.08;;;15.00;99.90;;;;;;6160715;23;20010;-87
2022/07/16 05:48:33;;;;;;;7.97;2.28;;;15.60;99.90;;;;;;6160876;23;20028;-88
2022/07/16 05:50:59;;;;;;;9.80;1.90;;;15.00;99.90;;;;;;6187457;23;20015;-87
2022/07/16 05:53:24;;;;;;;7.55;2.20;;;15.10;99.90;;;;;;6161537;23;20040;-89
2022/07/16 05:55:50;;;;;;;5.90;2.00;;;15.20;99.90;;;;;;6186100;23;20089;-82
2022/07/16 05:58:16;;;;;;;7.53;2.00;;;15.30;99.90;;;;;;6159206;23;20028;-82
2022/07/16 06:00:41;;;;;;;7.65;2.70;;;15.30;99.90;;;;;;6158421;23;20076;-81
2022/07/16 06:03:07;;;;;;;6.32;1.90;;;15.30;99.90;;;;;;6158917;23;20398;-82
2022/07/16 06:05:33;;;;;;;8.25;2.05;;;15.30;99.90;;;;;;6159117;23;20080;-82
2022/07/16 06:07:59;;;;;;;8.63;2.40;;;15.20;99.90;;;;;;6158128;23;20017;-82
2022/07/16 06:10:25;;;;;;;7.35;2.00;;;15.10;99.90;;;;;;6159902;23;20032;-83
2022/07/16 06:12:51;;;;;;;8.82;1.85;;;14.80;99.90;;;;;;6153877;23;20014;-81
2022/07/16 06:15:16;;;;;;;8.90;2.25;;;15.50;99.90;;;;;;6152991;23;20429;-81
2022/07/16 06:17:42;;;;;;;8.13;1.90;;;16.00;99.90;;;;;;6155476;23;20022;-81
2022/07/16 06:20:09;;;;;;;8.07;2.08;;;15.10;99.90;;;;;;6154044;23;20430;-81
2022/07/16 06:22:34;;;;;;;7.35;1.77;;;15.20;99.90;;;;;;6154813;23;20017;-81
2022/07/16 06:25:00;;;;;;;8.50;1.83;;;15.30;99.90;;;;;;6155267;23;20401;-82
2022/07/16 06:27:29;;;;;;;11.73;2.20;;;15.20;99.90;;;;;;6155584;23;20014;-81
2022/07/16 06:30:07;;;;;;;9.07;1.95;;;15.40;99.90;;;;;;6155683;23;20067;-81
2022/07/16 06:32:33;;;;;;;6.47;2.05;;;15.20;99.90;;;;;;6156829;23;20025;-82
2022/07/16 06:34:59;;;;;;;9.13;2.25;;;16.00;99.90;;;;;;6152515;23;20021;-82
2022/07/16 06:37:24;;;;;;;9.80;1.90;;;16.30;99.90;;;;;;6155969;23;20021;-81
2022/07/16 06:39:50;;;;;;;6.28;1.75;;;15.70;99.90;;;;;;6155874;23;20105;-80
2022/07/16 06:42:15;;;;;;;8.40;1.80;;;15.80;99.90;;;;;;6153043;23;20017;-80
2022/07/16 06:44:41;;;;;;;8.23;1.85;;;15.90;99.90;;;;;;6155447;23;20084;-80
2022/07/16 06:47:07;;;;;;;7.53;1.88;;;16.10;99.90;;;;;;6153507;23;20028;-80
2022/07/16 06:49:33;;;;;;;10.82;1.95;;;16.40;99.90;;;;;;6153287;23;20014;-83
2022/07/16 06:51:58;;;;;;;7.15;1.70;;;16.20;99.90;;;;;;6155320;23;20072;-84
2022/07/16 06:54:24;;;;;;;6.25;1.45;;;16.30;99.90;;;;;;6155959;23;20028;-82
2022/07/16 06:56:49;;;;;;;6.95;1.80;;;16.20;99.90;;;;;;6155040;23;20076;-83
2022/07/16 06:59:15;;;;;;;7.15;1.85;;;16.10;99.90;;;;;;6156765;23;20086;-82
2022/07/16 07:01:41;;;;;;;6.43;1.73;;;16.10;99.90;;;;;;6156758;23;20025;-82
2022/07/16 07:04:06;;;;;;;6.43;1.75;;;16.60;99.90;;;;;;6159094;23;20017;-82
2022/07/16 07:06:32;;;;;;;8.25;1.88;;;16.20;99.90;;;;;;6157592;23;20021;-81
2022/07/16 07:08:57;;;;;;;6.28;1.75;;;15.90;99.90;;;;;;6156905;23;20048;-82
2022/07/16 07:11:23;;;;;;;8.45;1.52;;;16.10;99.90;;;;;;6154756;23;20468;-82
2022/07/16 07:13:49;;;;;;;5.38;1.45;;;16.30;99.90;;;;;;6154962;23;20056;-81
2022/07/16 07:16:14;;;;;;;5.47;1.80;;;16.40;99.90;;;;;;6157491;23;20110;-82
2022/07/16 07:18:40;;;;;;;7.47;1.60;;;17.00;99.90;;;;;;6155959;23;20048;-81
2022/07/16 07:21:06;;;;;;;7.03;1.70;;;16.90;99.90;;;;;;6154432;23;20013;-82
2022/07/16 07:23:32;;;;;;;7.65;1.83;;;17.00;99.90;;;;;;6156413;23;20018;-82
2022/07/16 07:25:57;;;;;;;9.75;1.77;;;17.40;99.90;;;;;;6154787;23;20048;-82
2022/07/16 07:28:23;;;;;;;7.43;1.90;;;17.20;99.90;;;;;;6154548;23;20025;-82
2022/07/16 07:30:48;;;;;;;6.35;1.50;;;17.10;99.90;;;;;;6155405;23;20010;-82
2022/07/16 07:33:14;;;;;;;5.45;1.40;;;17.20;99.90;;;;;;6155533;23;20056;-82
2022/07/16 07:35:40;;;;;;;5.88;1.52;;;17.30;99.90;;;;;;6157021;23;20037;-82
2022/07/16 07:38:07;;;;;;;6.93;1.60;;;17.50;99.90;;;;;;6155991;23;20047;-82
2022/07/16 07:40:32;;;;;;;6.88;1.60;;;17.50;99.90;;;;;;6152642;23;20045;-82
2022/07/16 07:42:59;;;;;;;7.75;1.55;;;17.70;99.90;;;;;;6155816;23;20013;-81
2022/07/16 07:45:26;;;;;;;5.55;1.40;;;17.70;99.90;;;;;;6154009;23;20051;-81
2022/07/16 07:47:51;;;;;;;7.32;1.42;;;17.60;99.90;;;;;;6155610;23;20017;-82
2022/07/16 07:50:17;;;;;;;6.55;1.60;;;17.70;99.90;;;;;;6154138;23;20024;-81
2022/07/16 07:52:43;;;;;;;5.43;1.63;;;17.70;99.90;;;;;;6154967;23;20025;-82
2022/07/16 07:55:08;;;;;;;6.60;1.60;;;17.60;99.90;;;;;;6154078;23;20040;-81
2022/07/16 07:57:34;;;;;;;6.75;1.52;;;17.60;99.90;;;;;;6154093;23;20017;-81
2022/07/16 08:00:00;;;;;;;5.65;1.40;;;17.90;99.90;;;;;;6153605;23;20021;-81
2022/07/16 08:02:25;;;;;;;6.63;1.48;;;18.10;99.90;;;;;;6156540;23;20018;-81
2022/07/16 08:04:52;;;;;;;8.32;1.60;;;18.20;99.90;;;;;;6154232;23;20330;-81
2022/07/16 08:07:18;;;;;;;5.45;1.45;;;18.10;99.90;;;;;;6154395;23;20017;-81
2022/07/16 08:09:43;;;;;;;6.45;2.03;;;18.00;99.90;;;;;;6153986;23;20140;-81
2022/07/16 08:12:09;;;;;;;5.63;1.45;;;18.20;99.90;;;;;;6155885;23;20028;-82
2022/07/16 08:14:35;;;;;;;5.47;1.30;;;17.70;99.90;;;;;;6155367;23;20013;-82
2022/07/16 08:17:01;;;;;;;5.28;1.63;;;17.60;99.90;;;;;;6156048;23;20017;-83
2022/07/16 08:19:27;;;;;;;6.70;1.50;;;17.50;99.90;;;;;;6154750;23;20104;-83
2022/07/16 08:21:53;;;;;;;6.57;1.55;;;17.30;99.90;;;;;;6154530;23;20514;-82
2022/07/16 08:27:04;;;;;;;6.95;1.38;;;17.20;99.90;;;;;;6154031;23;20025;-84
2022/07/16 08:29:30;;;;;;;3.95;1.40;;;17.40;99.90;;;;;;6179159;23;20037;-83
2022/07/16 08:31:55;;;;;;;5.35;1.35;;;17.30;99.90;;;;;;6171733;23;20006;-85
2022/07/16 08:34:23;;;;;;;6.68;1.60;;;17.40;99.90;;;;;;6156847;23;20071;-81
2022/07/16 08:36:49;;;;;;;6.40;1.52;;;18.10;99.90;;;;;;6156897;23;20075;-82
2022/07/16 08:39:15;;;;;;;3.28;1.17;;;18.20;99.90;;;;;;6156169;23;20343;-82
2022/07/16 08:41:42;;;;;;;5.45;1.42;;;18.50;99.90;;;;;;6153042;23;20441;-81
2022/07/16 08:44:08;;;;;;;6.35;1.42;;;18.60;99.90;;;;;;6154304;23;20021;-82
2022/07/16 08:46:35;;;;;;;8.30;1.50;;;18.70;99.90;;;;;;6154309;23;20017;-83
2022/07/16 08:49:01;;;;;;;7.40;1.35;;;18.50;99.90;;;;;;6152989;23;20018;-80
2022/07/16 08:51:38;;;;;;;5.13;1.52;;;18.60;99.90;;;;;;6154191;23;20018;-80
2022/07/16 08:54:15;;;;;;;6.85;1.65;;;18.70;99.90;;;;;;6155672;23;20124;-81
2022/07/16 08:56:43;;;;;;;5.95;1.30;;;18.70;99.90;;;;;;6153398;23;20100;-82
2022/07/16 08:59:09;;;;;;;4.65;1.38;;;18.90;99.90;;;;;;6155330;23;20025;-80
2022/07/16 09:01:35;;;;;;;5.40;1.20;;;18.80;99.90;;;;;;6154007;23;20029;-80
2022/07/16 09:04:02;;;;;;;3.58;1.20;;;19.00;99.90;;;;;;6152746;23;20505;-80
2022/07/16 09:06:28;;;;;;;4.22;1.20;;;19.10;99.00;;;;;;6156031;23;20041;-81
2022/07/16 09:08:54;;;;;;;5.10;1.13;;;19.30;99.90;;;;;;6155657;23;20024;-81
2022/07/16 09:11:23;;;;;;;6.13;1.27;;;19.40;99.40;;;;;;6153091;23;20018;-80
2022/07/16 09:14:04;;;;;;;6.30;1.20;;;19.70;98.10;;;;;;6155655;23;20327;-81
2022/07/16 09:16:42;;;;;;;3.63;1.15;;;19.60;97.40;;;;;;6155514;23;20402;-80
2022/07/16 09:19:12;;;;;;;4.60;1.35;;;19.80;97.40;;;;;;6154075;23;20497;-80
2022/07/16 09:22:03;;;;;;;9.60;1.73;;;19.60;98.70;;;;;;6153515;23;20024;-81
2022/07/16 09:24:41;;;;;;;6.57;1.42;;;19.40;97.00;;;;;;6154643;23;20025;-80
2022/07/16 09:27:06;;;;;;;4.32;1.40;;;19.10;98.40;;;;;;6153593;23;20020;-80
2022/07/16 09:29:43;;;;;;;4.18;1.40;;;18.80;99.10;;;;;;6154930;23;20025;-81
2022/07/16 09:32:09;;;;;;;4.55;1.30;;;18.60;99.00;;;;;;6153837;23;20025;-81
2022/07/16 09:34:35;;;;;;;6.70;1.55;;;18.70;99.30;;;;;;6153840;23;20041;-81
2022/07/16 09:37:06;;;;;;;6.22;1.40;;;19.00;98.80;;;;;;6155345;23;20445;-81
2022/07/16 09:39:33;;;;;;;5.53;1.77;;;19.40;98.30;;;;;;6154776;23;20096;-81
2022/07/16 09:42:00;;;;;;;6.88;1.50;;;19.00;98.30;;;;;;6153692;23;20026;-81
2022/07/16 09:44:32;;;;;;;5.40;1.33;;;19.00;98.20;;;;;;6153003;23;20100;-81
2022/07/16 09:47:07;;;;;;;4.97;1.40;;;19.00;98.10;;;;;;6152855;23;20013;-81
2022/07/16 09:49:38;;;;;;;8.88;1.75;;;18.70;98.20;;;;;;6155684;23;20018;-81
2022/07/16 09:52:04;;;;;;;7.68;1.70;;;18.70;98.80;;;;;;6152685;23;20116;-81
2022/07/16 09:54:33;;;;;;;6.82;1.60;;;18.60;98.90;;;;;;6153353;23;20013;-81
2022/07/16 09:57:05;;;;;;;5.60;1.40;;;18.70;98.70;;;;;;6153198;23;20025;-81
2022/07/16 09:59:31;;;;;;;6.40;1.30;;;18.70;98.40;;;;;;6154488;23;20013;-82
2022/07/16 10:01:58;;;;;;;5.13;1.40;;;19.10;99.00;;;;;;6155173;23;20088;-82
2022/07/16 10:04:31;;;;;;;3.67;1.27;;;19.30;97.30;;;;;;6154959;23;20072;-82
2022/07/16 10:06:57;;;;;;;7.75;1.60;;;19.30;98.40;;;;;;6152331;23;20013;-82
2022/07/16 10:09:24;;;;;;;5.97;1.50;;;19.60;98.60;;;;;;6151496;23;20087;-81
2022/07/16 10:15:14;;;;;;;7.72;1.60;;;19.20;98.80;;;;;;6152030;23;20220;-82
2022/07/16 10:17:55;;;;;;;5.68;1.33;;;19.80;99.20;;;;;;6153433;23;20038;-83
2022/07/16 10:20:24;;;;;;;4.63;1.23;;;19.10;99.50;;;;;;6152900;23;20326;-80
2022/07/16 10:22:51;;;;;;;8.20;1.77;;;19.10;99.90;;;;;;6154870;23;20013;-83
2022/07/16 10:25:24;;;;;;;5.00;1.30;;;19.50;99.90;;;;;;6153332;23;20018;-81
2022/07/16 10:27:51;;;;;;;;;;;19.50;99.90;;;;;;6154744;23;20014;-82
2022/07/16 10:30:23;;;;;;;6.95;1.50;;;19.90;99.20;;;;;;6155361;23;19983;-81
2022/07/16 10:33:05;;;;;;;3.83;1.25;;;20.00;99.30;;;;;;6155827;23;20018;-82
2022/07/16 10:35:33;;;;;;;5.60;1.30;;;20.10;98.10;;;;;;6154444;23;20021;-82
2022/07/16 10:38:09;;;;;;;6.63;1.50;;;20.10;98.60;;;;;;6154600;23;20014;-81
2022/07/16 10:40:37;;;;;;;9.30;1.70;;;20.10;98.80;;;;;;6157472;23;20028;-82
2022/07/16 10:43:20;;;;;;;7.68;1.60;;;20.00;98.70;;;;;;6156108;23;20165;-81
2022/07/16 10:45:51;;;;;;;4.47;1.40;;;20.10;99.20;;;;;;6154963;23;20021;-82
2022/07/16 10:48:18;;;;;;;6.95;1.55;;;20.40;98.70;;;;;;6155792;23;20457;-81
2022/07/16 10:51:18;;;;;;;6.43;1.52;;;20.60;98.60;;;;;;6154813;23;20026;-81
2022/07/16 10:54:01;;;;;;;8.48;1.65;;;20.70;97.70;;;;;;6153995;23;20053;-82
2022/07/16 10:56:46;;;;;;;5.70;1.48;;;20.60;96.80;;;;;;6152986;23;20385;-81
2022/07/16 10:59:19;;;;;;;4.75;1.30;;;20.40;97.90;;;;;;6154443;23;20024;-82
2022/07/16 11:01:46;;;;;;;6.43;1.50;;;20.20;98.10;;;;;;6153847;23;20041;-82
2022/07/16 11:04:13;;;;;;;5.63;1.60;;;20.00;98.00;;;;;;6154900;23;20341;-82
2022/07/16 11:06:40;;;;;;;4.97;1.42;;;19.80;98.50;;;;;;6155969;23;20017;-81
2022/07/16 11:09:08;;;;;;;6.22;1.52;;;19.60;98.30;;;;;;6155368;23;20057;-81
2022/07/16 11:11:36;;;;;;;5.70;1.60;;;19.70;98.10;;;;;;6153294;23;20021;-81
2022/07/16 11:14:02;;;;;;;7.43;1.58;;;19.40;97.90;;;;;;6155834;23;20023;-82
2022/07/16 11:16:28;;;;;;;5.90;1.50;;;19.60;97.10;;;;;;6153705;23;20093;-83
2022/07/16 11:18:54;;;;;;;6.00;1.50;;;20.20;95.80;;;;;;6156287;23;20077;-83
2022/07/16 11:21:21;;;;;;;4.13;1.30;;;20.60;95.40;;;;;;6156416;23;20393;-83
2022/07/16 11:23:48;;;;;;;3.42;1.80;;;21.00;94.00;;;;;;6153566;23;20488;-84
2022/07/16 11:26:14;;;;;;;6.88;1.58;;;21.70;94.30;;;;;;6154851;23;20369;-82
2022/07/16 11:28:58;;;;;;;6.63;1.60;;;21.90;94.10;;;;;;6152231;23;20018;-83
2022/07/16 11:31:33;;;;;;;4.63;1.42;;;21.60;92.90;;;;;;6158853;23;20021;-83
2022/07/16 11:34:07;;;;;;;7.30;1.70;;;21.70;93.70;;;;;;6177901;23;20045;-81
2022/07/16 11:36:34;;;;;;;4.97;1.58;;;21.80;93.90;;;;;;6161661;23;20521;-83
2022/07/16 11:39:06;;;;;;;5.80;1.50;;;21.80;93.20;;;;;;6154106;23;20017;-82
2022/07/16 11:41:33;;;;;;;3.95;1.63;;;22.10;92.50;;;;;;6154717;23;20018;-82
2022/07/16 11:44:06;;;;;;;9.52;1.75;;;22.40;92.30;;;;;;6154108;23;20043;-83
2022/07/16 11:46:32;;;;;;;;;;;22.70;92.40;;;;;;6154166;23;20331;-82
2022/07/16 11:48:58;;;;;;;4.28;1.35;;;22.60;90.20;;;;;;6156212;23;19999;-83
2022/07/16 11:51:25;;;;;;;6.53;1.52;;;22.20;91.80;;;;;;6155841;23;20043;-83
2022/07/16 11:53:55;;;;;;;4.35;1.38;;;21.70;91.80;;;;;;6154410;23;20021;-83
2022/07/16 11:56:32;;;;;;;7.95;1.60;;;21.40;92.20;;;;;;6156281;23;20497;-83
2022/07/16 11:58:58;;;;;;;6.88;1.48;;;21.30;91.20;;;;;;6153364;23;20017;-84
2022/07/16 12:01:24;;;;;;;9.32;1.83;;;21.50;91.30;;;;;;6154724;23;20014;-84
2022/07/16 12:03:54;;;;;;;5.45;1.35;;;21.90;91.20;;;;;;6155387;23;20326;-84
2022/07/16 12:06:20;;;;;;;6.00;1.52;;;21.40;90.10;;;;;;6153795;23;20013;-83
2022/07/16 12:08:56;;;;;;;4.90;1.40;;;21.40;89.90;;;;;;6153229;23;20072;-83
2022/07/16 12:11:35;;;;;;;5.57;1.60;;;22.10;90.30;;;;;;6154481;23;20053;-83
2022/07/16 12:14:02;;;;;;;5.65;1.40;;;22.40;87.90;;;;;;6153081;23;20337;-84
2022/07/16 12:16:28;;;;;;;8.07;1.67;;;22.20;89.80;;;;;;6156144;23;20017;-83
2022/07/16 12:19:10;;;;;;;5.68;1.50;;;21.80;89.40;;;;;;6154531;23;20377;-83
2022/07/16 12:21:47;;;;;;;6.38;1.45;;;22.10;89.50;;;;;;6153733;23;20413;-83
2022/07/16 12:24:31;;;;;;;5.95;1.55;;;22.30;88.50;;;;;;6156028;23;20088;-83
2022/07/16 12:26:57;;;;;;;7.63;1.50;;;23.00;86.00;;;;;;6153135;23;20013;-84
2022/07/16 12:29:39;;;;;;;8.50;1.73;;;22.80;88.10;;;;;;6154165;23;20009;-84
2022/07/16 12:32:17;;;;;;;5.18;1.50;;;22.20;87.50;;;;;;6153926;23;20014;-84
2022/07/16 12:34:55;;;;;;;7.80;2.40;;;22.30;88.40;;;;;;6155632;23;20326;-84
2022/07/16 12:37:20;;;;;;;7.00;1.55;;;22.10;89.20;;;;;;6163555;23;20014;-84
2022/07/16 12:40:29;;;;;;;5.10;1.48;;;22.20;90.00;;;;;;6158627;23;20060;-83
2022/07/16 12:42:55;;;;;;;3.95;1.27;;;21.90;89.20;;;;;;6152769;23;20394;-83
2022/07/16 12:45:42;;;;;;;5.43;1.50;;;21.70;88.70;;;;;;6154355;23;20021;-83
2022/07/16 12:48:08;;;;;;;5.20;1.50;;;21.90;89.00;;;;;;6153548;23;20021;-84
2022/07/16 12:50:53;;;;;;;6.15;1.40;;;22.30;89.20;;;;;;6154270;23;20100;-83
2022/07/16 12:53:18;;;;;;;6.30;1.60;;;22.60;88.60;;;;;;6154060;23;20017;-83
2022/07/16 13:01:23;;;;;;;3.83;1.50;;;23.00;87.00;;;;;;6154373;23;20021;-84
2022/07/16 13:03:49;;;;;;;9.68;1.92;;;22.50;85.70;;;;;;6154309;23;20450;-80
2022/07/16 13:06:15;;;;;;;6.75;1.60;;;22.30;88.20;;;;;;6154112;23;20385;-80
2022/07/16 13:08:41;;;;;;;6.75;1.75;;;21.90;88.40;;;;;;6155839;23;20060;-80
2022/07/16 13:11:09;;;;;;;6.07;1.40;;;21.80;88.80;;;;;;6152982;23;20068;-80
2022/07/16 13:13:36;;;;;;;8.13;1.55;;;22.10;89.00;;;;;;6154149;23;20092;-80
2022/07/16 13:16:02;;;;;;;6.20;1.40;;;22.20;88.30;;;;;;6154487;23;20014;-80
2022/07/16 13:18:28;;;;;;;7.25;1.88;;;22.00;88.00;;;;;;6155826;23;20509;-80
2022/07/16 13:20:53;;;;;;;6.75;1.83;;;22.20;88.50;;;;;;6128927;23;20105;-80
2022/07/16 13:23:19;;;;;;;5.90;1.60;;;22.80;87.70;;;;;;6154577;23;20049;-80
2022/07/16 13:25:45;;;;;;;3.67;1.30;;;23.10;87.40;;;;;;6155414;23;20468;-80